Andalusia, Alabama
Current Conditions -  °F | °C
As of 5:56 PM on Friday 21 Nov 2014 (Local Time) from K79J Reporting Station
Clear Clear  
Wind Chill: 59°   Ceiling: Unl
Heat Index: 59°   Visibility: 10mi
Dew Point: 42°   Wind: 0mph
Humidity: 53%   Direction: NA
Pressure: 30.32"   Gusts: NA
Location:  31.32°N, 86.49°W
Report Text: K79J 212356Z AUTO 00000KT 10SM CLR 15/06 A3032 RMK AO2 SLP267 T01500056 10228 20150 53015
Loading
Personal Weather Stations






























Interactive Weather Map New forecast layout! Learn more

10-Day Weather Forecast

Advertisements
Track Severe Weather on mobile